Time;durP1;ratioP1;P1;durP2;ratioP2;P2;SDS_P1;SDS_P2;PMS_P1;PMS_P2;Temp;Humidity;BMP_temperature;BMP_pressure;BME280_temperature;BME280_humidity;BME280_pressure;Samples;Min_cycle;Max_cycle;Signal;HPM_P1;HPM_P2
2023/03/29 00:08:32;;;;;;;2.80;1.30;;;;;;;;;;6008562;29;20073;-75
2023/03/29 00:14:50;;;;;;;4.75;1.60;;;;;;;;;;6065265;29;20061;-75
2023/03/29 00:18:11;;;;;;;5.30;1.40;;;;;;;;;;6108182;29;20059;-75
2023/03/29 00:21:15;;;;;;;3.40;1.38;;;;;;;;;;6105038;29;20055;-74
2023/03/29 00:24:22;;;;;;;3.17;1.55;;;;;;;;;;6108559;29;20064;-74
2023/03/29 00:27:29;;;;;;;4.57;1.60;;;;;;;;;;6169912;28;20073;-74
2023/03/29 00:30:56;;;;;;;;;;;;;;;;;;;;;
2023/03/29 00:33:59;;;;;;;7.90;1.88;;;;;;;;;;6166128;28;20351;-75
2023/03/29 00:41:09;;;;;;;50.67;20.90;;;;;;;;;;6035936;29;20041;-76
2023/03/29 00:49:29;;;;;;;19.85;9.25;;;;;;;;;;6032344;29;20342;-75
2023/03/29 00:52:37;;;;;;;8.00;3.17;;;;;;;;;;6137695;28;20369;-74
2023/03/29 00:55:45;;;;;;;5.25;2.10;;;;;;;;;;6164272;28;20055;-75
2023/03/29 00:59:34;;;;;;;;;;;;;;;;;;;;;
2023/03/29 01:11:21;;;;;;;6.03;1.80;;;;;;;;;;6211346;28;20060;-73
2023/03/29 01:14:29;;;;;;;3.38;2.08;;;;;;;;;;6289951;28;20045;-74
2023/03/29 01:29:22;;;;;;;2.47;1.38;;;;;;;;;;6209285;28;20330;-72
2023/03/29 01:32:29;;;;;;;6.40;2.15;;;;;;;;;;6213968;28;20107;-75
2023/03/29 01:35:37;;;;;;;4.43;1.52;;;;;;;;;;6202492;28;20100;-75
2023/03/29 01:38:47;;;;;;;2.63;1.27;;;;;;;;;;6209042;28;20158;-72
2023/03/29 01:45:27;;;;;;;;;;;;;;;;;;;;;
2023/03/29 01:49:27;;;;;;;4.03;1.17;;;;;;;;;;6208240;28;19925;-73
2023/03/29 01:52:49;;;;;;;3.83;1.30;;;;;;;;;;6214463;28;20088;-74
2023/03/29 01:56:08;;;;;;;4.15;1.33;;;;;;;;;;6206843;28;20100;-74
2023/03/29 01:59:23;;;;;;;4.00;1.35;;;;;;;;;;6283335;28;20055;-75
2023/03/29 02:14:18;;;;;;;2.28;1.20;;;;;;;;;;6149040;28;20054;-74
2023/03/29 02:17:29;;;;;;;1.73;1.05;;;;;;;;;;6142653;28;20055;-74
2023/03/29 02:20:35;;;;;;;2.13;0.90;;;;;;;;;;6141303;28;20080;-74
2023/03/29 02:23:51;;;;;;;3.63;0.88;;;;;;;;;;6147075;28;20059;-75
2023/03/29 02:27:07;;;;;;;2.47;1.20;;;;;;;;;;6138461;28;20067;-76
2023/03/29 02:30:11;;;;;;;1.65;0.90;;;;;;;;;;6148525;28;20054;-75
2023/03/29 02:33:14;;;;;;;;;;;;;;;;;;6146246;28;20055;-75
2023/03/29 02:36:53;;;;;;;2.55;1.25;;;;;;;;;;6146921;28;19927;-75
2023/03/29 02:40:11;;;;;;;4.65;1.30;;;;;;;;;;6144126;28;20051;-74
2023/03/29 02:47:33;;;;;;;2.70;1.20;;;;;;;;;;6286508;28;20044;-75
2023/03/29 02:59:17;;;;;;;;;;;;;;;;;;;;;
2023/03/29 03:19:20;;;;;;;7.18;1.35;;;;;;;;;;6160845;28;20335;-73
2023/03/29 03:37:49;;;;;;;3.50;1.27;;;;;;;;;;6213825;28;20120;-72
2023/03/29 03:40:54;;;;;;;3.67;1.40;;;;;;;;;;6215968;28;20072;-73
2023/03/29 03:44:03;;;;;;;3.20;1.83;;;;;;;;;;6212078;28;20136;-74
2023/03/29 03:47:15;;;;;;;4.55;1.77;;;;;;;;;;6213235;28;20200;-73
2023/03/29 03:50:27;;;;;;;3.75;1.90;;;;;;;;;;6214126;28;20740;-75
2023/03/29 03:53:56;;;;;;;3.85;1.80;;;;;;;;;;6214074;28;20057;-74
2023/03/29 03:57:06;;;;;;;7.43;1.90;;;;;;;;;;6220293;28;20136;-74
2023/03/29 04:00:17;;;;;;;3.13;1.70;;;;;;;;;;6244413;28;20056;-74
2023/03/29 04:06:35;;;;;;;8.35;1.85;;;;;;;;;;6302241;28;20075;-73
2023/03/29 04:10:00;;;;;;;4.85;1.85;;;;;;;;;;6287213;28;20052;-72
2023/03/29 04:13:03;;;;;;;6.05;1.80;;;;;;;;;;6278190;28;20048;-71
2023/03/29 04:16:51;;;;;;;7.63;2.67;;;;;;;;;;6295017;28;20047;-72
2023/03/29 04:20:12;;;;;;;3.15;1.70;;;;;;;;;;6292308;28;20060;-73
2023/03/29 04:23:15;;;;;;;4.63;2.30;;;;;;;;;;6291588;28;20114;-73
2023/03/29 04:34:10;;;;;;;3.28;2.05;;;;;;;;;;6193542;28;20053;-76
2023/03/29 04:37:12;;;;;;;9.40;2.65;;;;;;;;;;6193034;28;20330;-75
2023/03/29 04:40:14;;;;;;;5.28;2.60;;;;;;;;;;6190907;28;20101;-75
2023/03/29 04:50:53;;;;;;;3.60;2.35;;;;;;;;;;6214668;28;20276;-75
2023/03/29 04:53:55;;;;;;;12.48;2.67;;;;;;;;;;6205033;28;20045;-75
2023/03/29 04:57:43;;;;;;;5.75;2.30;;;;;;;;;;6182306;28;20141;-74
2023/03/29 05:01:04;;;;;;;3.97;2.15;;;;;;;;;;6084040;29;20063;-74
2023/03/29 05:04:08;;;;;;;6.07;2.38;;;;;;;;;;6083037;29;20057;-73
2023/03/29 05:07:18;;;;;;;8.80;3.40;;;;;;;;;;6126539;28;20070;-72
2023/03/29 05:10:20;;;;;;;7.97;3.03;;;;;;;;;;6173026;28;20231;-75
2023/03/29 05:13:31;;;;;;;5.00;2.42;;;;;;;;;;6171328;28;20298;-75
2023/03/29 05:16:44;;;;;;;8.38;2.83;;;;;;;;;;6172747;28;20055;-78
2023/03/29 05:19:55;;;;;;;6.95;2.67;;;;;;;;;;6164755;28;20073;-75
2023/03/29 05:23:20;;;;;;;8.10;2.22;;;;;;;;;;6179313;28;20055;-75
2023/03/29 05:26:22;;;;;;;6.15;2.35;;;;;;;;;;6202783;28;20047;-76
2023/03/29 05:29:24;;;;;;;6.40;2.55;;;;;;;;;;6207003;28;20053;-74
2023/03/29 05:32:26;;;;;;;6.85;2.72;;;;;;;;;;6318639;28;20328;-76
2023/03/29 05:35:28;;;;;;;5.70;2.45;;;;;;;;;;6320359;28;20102;-74
2023/03/29 05:38:33;;;;;;;7.85;2.67;;;;;;;;;;6319225;28;20059;-75
2023/03/29 05:41:38;;;;;;;4.88;2.25;;;;;;;;;;6302771;28;20060;-75
2023/03/29 05:51:45;;;;;;;5.85;2.40;;;;;;;;;;6313917;28;20690;-75
2023/03/29 05:54:48;;;;;;;5.53;2.05;;;;;;;;;;6315598;28;20094;-75
2023/03/29 05:57:50;;;;;;;4.37;2.10;;;;;;;;;;6312847;28;20071;-74
2023/03/29 06:00:52;;;;;;;5.75;2.10;;;;;;;;;;6311700;28;20162;-74
2023/03/29 06:03:55;;;;;;;6.10;1.80;;;;;;;;;;6315719;28;20059;-75
2023/03/29 06:06:59;;;;;;;4.40;1.90;;;;;;;;;;6313078;28;20053;-75
2023/03/29 06:10:08;;;;;;;3.38;1.75;;;;;;;;;;6310950;28;20294;-73
2023/03/29 06:13:13;;;;;;;1.90;1.20;;;;;;;;;;6301361;28;20056;-74
2023/03/29 06:16:15;;;;;;;5.65;1.40;;;;;;;;;;6309570;28;20197;-74
2023/03/29 06:19:18;;;;;;;3.38;1.73;;;;;;;;;;6312512;28;20240;-75
2023/03/29 06:22:20;;;;;;;4.68;1.55;;;;;;;;;;6315007;28;20067;-75
2023/03/29 06:25:23;;;;;;;4.95;2.20;;;;;;;;;;6311886;28;20056;-73
2023/03/29 06:28:26;;;;;;;4.40;1.48;;;;;;;;;;6312446;28;20059;-75
2023/03/29 06:31:28;;;;;;;6.80;1.50;;;;;;;;;;6314259;28;20060;-74
2023/03/29 06:34:31;;;;;;;6.78;1.83;;;;;;;;;;6317326;28;20048;-73
2023/03/29 06:37:33;;;;;;;5.07;1.80;;;;;;;;;;6311207;28;20071;-75
2023/03/29 06:40:38;;;;;;;6.22;1.88;;;;;;;;;;6312680;28;20060;-74
2023/03/29 06:43:39;;;;;;;5.45;1.80;;;;;;;;;;6313863;28;20048;-75
2023/03/29 06:49:57;;;;;;;6.35;1.90;;;;;;;;;;6310691;28;20336;-74
2023/03/29 06:52:58;;;;;;;7.32;2.75;;;;;;;;;;6312784;28;20056;-75
2023/03/29 06:56:04;;;;;;;5.63;1.85;;;;;;;;;;6313560;28;21108;-76
2023/03/29 06:59:06;;;;;;;6.13;1.80;;;;;;;;;;6311092;28;20116;-74
2023/03/29 07:02:11;;;;;;;3.45;1.30;;;;;;;;;;6315620;28;20060;-75
2023/03/29 07:05:13;;;;;;;2.60;1.13;;;;;;;;;;6315300;28;20278;-75
2023/03/29 07:08:15;;;;;;;8.45;1.20;;;;;;;;;;6310663;28;20049;-74
2023/03/29 07:11:19;;;;;;;3.75;0.93;;;;;;;;;;6310408;28;20113;-75
2023/03/29 07:14:21;;;;;;;2.70;1.00;;;;;;;;;;6311234;28;20055;-75
2023/03/29 07:17:23;;;;;;;4.85;1.35;;;;;;;;;;6309800;28;20062;-75
2023/03/29 07:20:26;;;;;;;8.15;1.48;;;;;;;;;;6312593;28;20056;-76
2023/03/29 07:23:28;;;;;;;6.20;1.10;;;;;;;;;;6315352;28;20116;-74
2023/03/29 07:26:31;;;;;;;2.40;1.00;;;;;;;;;;6317883;28;20102;-75
2023/03/29 07:29:34;;;;;;;4.73;1.13;;;;;;;;;;6317003;28;20058;-75
2023/03/29 07:32:37;;;;;;;4.10;1.17;;;;;;;;;;6316581;28;20512;-75
2023/03/29 07:35:42;;;;;;;5.28;1.20;;;;;;;;;;6317939;28;20078;-75
2023/03/29 07:38:44;;;;;;;6.15;1.30;;;;;;;;;;6314952;28;20056;-75
2023/03/29 07:41:59;;;;;;;4.90;1.35;;;;;;;;;;6316305;28;20051;-75
2023/03/29 07:45:02;;;;;;;7.55;2.92;;;;;;;;;;6304778;28;20403;-75
2023/03/29 07:48:04;;;;;;;8.63;3.03;;;;;;;;;;6317691;28;20116;-75
2023/03/29 07:51:07;;;;;;;9.23;3.67;;;;;;;;;;6318397;28;20051;-75
2023/03/29 07:54:09;;;;;;;8.05;3.95;;;;;;;;;;6315503;28;20056;-75
2023/03/29 07:57:12;;;;;;;10.43;3.40;;;;;;;;;;6315110;28;20071;-75
2023/03/29 08:00:16;;;;;;;8.00;4.13;;;;;;;;;;6319053;28;20060;-73
2023/03/29 08:03:18;;;;;;;9.10;3.28;;;;;;;;;;6316897;28;20079;-75
2023/03/29 08:06:26;;;;;;;9.50;3.30;;;;;;;;;;6318005;28;20109;-74
2023/03/29 08:09:28;;;;;;;7.97;3.22;;;;;;;;;;6315669;28;20052;-75
2023/03/29 08:12:32;;;;;;;10.35;3.25;;;;;;;;;;6316855;28;20328;-75
2023/03/29 08:15:34;;;;;;;5.30;3.17;;;;;;;;;;6314937;28;20060;-75
2023/03/29 08:18:35;;;;;;;6.57;2.88;;;;;;;;;;6312839;28;20048;-75
2023/03/29 08:21:38;;;;;;;4.93;3.20;;;;;;;;;;6314282;28;20119;-75
2023/03/29 08:24:44;;;;;;;6.95;3.40;;;;;;;;;;6315175;28;20052;-75
2023/03/29 08:27:50;;;;;;;6.85;3.10;;;;;;;;;;6316638;28;20052;-75
2023/03/29 08:30:52;;;;;;;9.27;3.85;;;;;;;;;;6317496;28;20040;-75
2023/03/29 08:33:54;;;;;;;5.03;2.70;;;;;;;;;;6317624;28;20170;-75
2023/03/29 08:36:56;;;;;;;6.57;2.92;;;;;;;;;;6315339;28;20056;-75
2023/03/29 08:39:58;;;;;;;7.57;2.75;;;;;;;;;;6315342;28;20036;-75
2023/03/29 08:43:19;;;;;;;7.10;3.00;;;;;;;;;;6315956;28;20063;-76
2023/03/29 08:46:30;;;;;;;7.10;2.03;;;;;;;;;;6314668;28;20072;-75
2023/03/29 08:49:32;;;;;;;6.13;1.60;;;;;;;;;;6319485;28;20047;-75
2023/03/29 08:52:36;;;;;;;9.60;1.70;;;;;;;;;;6315962;28;20315;-73
2023/03/29 08:55:40;;;;;;;7.88;1.80;;;;;;;;;;6312178;28;20355;-75
2023/03/29 08:58:45;;;;;;;6.10;1.70;;;;;;;;;;6314723;28;20240;-72
2023/03/29 09:01:49;;;;;;;4.88;1.65;;;;;;;;;;6316479;28;20328;-75
2023/03/29 09:04:53;;;;;;;10.10;1.65;;;;;;;;;;6314974;28;20055;-76
2023/03/29 09:07:54;;;;;;;6.03;2.00;;;;;;;;;;6312704;28;20056;-75
2023/03/29 09:11:11;;;;;;;5.05;1.20;;;;;;;;;;6302664;28;20047;-75
2023/03/29 09:14:30;;;;;;;4.15;1.30;;;;;;;;;;6311102;28;20478;-75
2023/03/29 09:17:41;;;;;;;3.55;1.50;;;;;;;;;;6313530;28;20052;-75
2023/03/29 09:20:48;;;;;;;6.15;1.83;;;;;;;;;;6308697;28;20048;-75
2023/03/29 09:24:10;;;;;;;6.05;1.65;;;;;;;;;;6314363;28;20044;-74
2023/03/29 09:27:17;;;;;;;4.00;1.73;;;;;;;;;;6314457;28;20040;-76
2023/03/29 09:30:34;;;;;;;5.88;2.20;;;;;;;;;;6316605;28;20389;-76
2023/03/29 09:33:48;;;;;;;7.05;1.83;;;;;;;;;;6311693;28;20143;-76
2023/03/29 09:36:52;;;;;;;3.78;1.58;;;;;;;;;;6313804;28;20044;-75
2023/03/29 09:39:56;;;;;;;3.17;1.48;;;;;;;;;;6312324;28;20060;-76
2023/03/29 09:42:58;;;;;;;5.95;1.83;;;;;;;;;;6314087;28;20142;-74
2023/03/29 09:46:36;;;;;;;5.13;1.77;;;;;;;;;;6307884;28;20123;-76
2023/03/29 09:49:41;;;;;;;5.32;1.35;;;;;;;;;;6303298;28;20348;-72
2023/03/29 09:52:43;;;;;;;6.93;1.83;;;;;;;;;;6310977;28;20433;-75
2023/03/29 09:55:50;;;;;;;7.03;1.92;;;;;;;;;;6312431;28;20345;-75
2023/03/29 09:58:52;;;;;;;4.68;1.73;;;;;;;;;;6314307;28;20166;-76
2023/03/29 10:02:06;;;;;;;8.98;2.03;;;;;;;;;;6311252;28;20068;-73
2023/03/29 10:05:09;;;;;;;5.70;1.70;;;;;;;;;;6300632;28;20055;-75
2023/03/29 10:08:17;;;;;;;6.78;1.50;;;;;;;;;;6314350;28;20058;-75
2023/03/29 10:11:22;;;;;;;6.15;1.77;;;;;;;;;;6314188;28;20055;-75
2023/03/29 10:14:32;;;;;;;5.60;1.80;;;;;;;;;;6311629;28;20121;-75
2023/03/29 10:17:41;;;;;;;7.00;2.00;;;;;;;;;;6312639;28;20071;-74
2023/03/29 10:20:44;;;;;;;4.95;1.98;;;;;;;;;;6314368;28;20375;-76
2023/03/29 10:23:45;;;;;;;7.28;1.77;;;;;;;;;;6313596;28;20123;-75
2023/03/29 10:26:50;;;;;;;6.68;1.98;;;;;;;;;;6313596;28;20074;-76
2023/03/29 10:29:52;;;;;;;5.13;1.77;;;;;;;;;;6313325;28;20052;-75
2023/03/29 10:32:59;;;;;;;5.55;1.90;;;;;;;;;;6313582;28;20059;-75
2023/03/29 10:36:05;;;;;;;4.93;2.15;;;;;;;;;;6315353;28;20052;-76
2023/03/29 10:39:22;;;;;;;5.60;2.10;;;;;;;;;;6313628;28;20231;-75
2023/03/29 10:42:24;;;;;;;6.22;1.80;;;;;;;;;;6313411;28;20075;-75
2023/03/29 10:45:29;;;;;;;4.75;2.20;;;;;;;;;;6311911;28;20067;-73
2023/03/29 10:48:35;;;;;;;5.57;2.45;;;;;;;;;;6315499;28;20044;-75
2023/03/29 10:51:36;;;;;;;4.95;1.70;;;;;;;;;;6310405;28;20048;-76
2023/03/29 10:54:38;;;;;;;12.07;2.20;;;;;;;;;;6313160;28;20043;-75
2023/03/29 10:57:50;;;;;;;6.85;1.95;;;;;;;;;;6310542;28;20063;-74
2023/03/29 11:00:56;;;;;;;5.85;2.03;;;;;;;;;;6310568;28;20060;-74
2023/03/29 11:04:07;;;;;;;6.45;2.25;;;;;;;;;;6312695;28;20234;-74
2023/03/29 11:07:28;;;;;;;6.07;2.38;;;;;;;;;;6310796;28;20100;-76
2023/03/29 11:10:37;;;;;;;5.10;2.25;;;;;;;;;;6312255;28;20078;-75
2023/03/29 11:13:50;;;;;;;6.32;2.00;;;;;;;;;;6309549;28;20044;-79
2023/03/29 11:16:59;;;;;;;7.57;2.35;;;;;;;;;;6294944;28;20077;-75
2023/03/29 11:20:26;;;;;;;4.50;1.83;;;;;;;;;;6312794;28;20040;-74
2023/03/29 11:23:40;;;;;;;6.20;2.40;;;;;;;;;;6310079;28;20067;-75
2023/03/29 11:26:54;;;;;;;4.13;2.20;;;;;;;;;;6309428;28;20072;-74
2023/03/29 11:30:05;;;;;;;7.68;2.40;;;;;;;;;;6312310;28;20114;-74
2023/03/29 11:33:21;;;;;;;9.10;2.38;;;;;;;;;;6309381;28;20355;-75
2023/03/29 11:36:31;;;;;;;5.40;2.10;;;;;;;;;;6312720;28;20044;-74
2023/03/29 11:39:39;;;;;;;5.13;2.00;;;;;;;;;;6311804;28;20052;-74
2023/03/29 11:42:44;;;;;;;7.38;2.30;;;;;;;;;;6311583;28;20044;-73
2023/03/29 11:45:51;;;;;;;5.05;1.75;;;;;;;;;;6309934;28;20332;-74
2023/03/29 11:48:56;;;;;;;3.50;2.17;;;;;;;;;;6312489;28;20060;-75
2023/03/29 11:52:05;;;;;;;20.48;12.55;;;;;;;;;;6312583;28;20044;-77
2023/03/29 11:55:10;;;;;;;47.03;22.75;;;;;;;;;;6315009;28;20048;-76
2023/03/29 11:58:16;;;;;;;24.52;10.77;;;;;;;;;;6316642;28;20044;-76
2023/03/29 12:01:30;;;;;;;31.50;15.82;;;;;;;;;;6315390;28;20103;-77
2023/03/29 12:04:35;;;;;;;98.90;57.72;;;;;;;;;;6316367;28;20058;-76
2023/03/29 12:07:52;;;;;;;24.55;16.15;;;;;;;;;;6311872;28;20347;-74
2023/03/29 12:11:05;;;;;;;6.85;2.60;;;;;;;;;;6317883;28;20332;-76
2023/03/29 12:14:11;;;;;;;5.88;2.40;;;;;;;;;;6315201;28;20052;-75
2023/03/29 12:17:17;;;;;;;6.00;2.08;;;;;;;;;;6314259;28;20059;-76
2023/03/29 12:20:25;;;;;;;8.70;2.80;;;;;;;;;;6313776;28;20051;-75
2023/03/29 12:23:31;;;;;;;5.70;3.05;;;;;;;;;;6316857;28;20086;-75
2023/03/29 12:26:49;;;;;;;4.75;2.47;;;;;;;;;;6312914;28;20056;-75
2023/03/29 12:30:22;;;;;;;4.60;2.15;;;;;;;;;;6314263;28;20049;-75
2023/03/29 12:33:42;;;;;;;6.07;2.10;;;;;;;;;;6316080;28;20047;-75
2023/03/29 12:36:59;;;;;;;4.15;2.10;;;;;;;;;;6312506;28;20064;-74
2023/03/29 12:40:12;;;;;;;4.60;1.95;;;;;;;;;;6302917;28;20044;-76
2023/03/29 12:43:22;;;;;;;7.47;1.83;;;;;;;;;;6315733;28;20060;-75
2023/03/29 12:46:25;;;;;;;5.15;2.10;;;;;;;;;;6315853;28;20519;-75
2023/03/29 12:49:30;;;;;;;10.88;2.05;;;;;;;;;;6318585;28;20094;-75
2023/03/29 12:52:33;;;;;;;10.63;2.30;;;;;;;;;;6317751;28;20082;-76
2023/03/29 12:55:50;;;;;;;7.45;2.53;;;;;;;;;;6313404;28;20248;-73
2023/03/29 12:58:53;;;;;;;5.95;1.95;;;;;;;;;;6316375;28;20058;-75
2023/03/29 13:02:02;;;;;;;6.30;2.40;;;;;;;;;;6319066;28;20113;-72
2023/03/29 13:05:31;;;;;;;4.70;1.70;;;;;;;;;;6315679;28;20345;-76
2023/03/29 13:08:38;;;;;;;5.50;2.20;;;;;;;;;;6314933;28;20591;-77
2023/03/29 13:11:42;;;;;;;6.28;2.22;;;;;;;;;;6314864;28;20099;-74
2023/03/29 13:14:45;;;;;;;5.35;1.65;;;;;;;;;;6314662;28;20419;-76
2023/03/29 13:17:53;;;;;;;6.30;1.90;;;;;;;;;;6313363;28;20056;-76
2023/03/29 13:21:01;;;;;;;6.40;1.95;;;;;;;;;;6314854;28;20072;-75
2023/03/29 13:24:09;;;;;;;3.70;2.13;;;;;;;;;;6313710;28;20056;-75
2023/03/29 13:27:20;;;;;;;50.20;31.00;;;;;;;;;;6313616;28;20060;-76
2023/03/29 13:30:28;;;;;;;7.35;2.80;;;;;;;;;;6312805;28;20340;-76
2023/03/29 13:33:53;;;;;;;4.15;2.00;;;;;;;;;;6312911;28;20128;-75
2023/03/29 13:37:02;;;;;;;7.28;2.30;;;;;;;;;;6315110;28;20292;-76
2023/03/29 13:40:33;;;;;;;6.35;2.40;;;;;;;;;;6313428;28;20052;-77
2023/03/29 13:43:49;;;;;;;5.90;2.40;;;;;;;;;;6312475;28;20052;-76
2023/03/29 13:47:03;;;;;;;7.65;2.20;;;;;;;;;;6314814;28;20127;-74
2023/03/29 13:50:11;;;;;;;8.68;1.88;;;;;;;;;;6313881;28;20222;-75
2023/03/29 13:53:20;;;;;;;9.10;2.00;;;;;;;;;;6315591;28;20122;-73
2023/03/29 13:56:25;;;;;;;10.18;2.00;;;;;;;;;;6314329;28;20048;-76
2023/03/29 13:59:34;;;;;;;6.68;1.95;;;;;;;;;;6312312;28;20255;-76
2023/03/29 14:02:40;;;;;;;9.73;1.95;;;;;;;;;;6317255;28;20049;-76
2023/03/29 14:05:47;;;;;;;9.30;1.92;;;;;;;;;;6312754;28;20056;-76
2023/03/29 14:08:49;;;;;;;4.60;1.80;;;;;;;;;;6310836;28;20052;-76
2023/03/29 14:11:55;;;;;;;28.58;21.45;;;;;;;;;;6311655;28;20079;-77
2023/03/29 14:15:02;;;;;;;29.73;20.95;;;;;;;;;;6313335;28;20059;-79
2023/03/29 14:18:09;;;;;;;6.25;2.10;;;;;;;;;;6314740;28;20041;-77
2023/03/29 14:21:18;;;;;;;4.50;1.95;;;;;;;;;;6311418;28;20123;-76
2023/03/29 14:24:22;;;;;;;10.05;2.47;;;;;;;;;;6312138;28;20596;-76
2023/03/29 14:27:24;;;;;;;3.67;1.92;;;;;;;;;;6309781;28;20352;-76
2023/03/29 14:30:30;;;;;;;6.82;1.73;;;;;;;;;;6311664;28;20074;-76
2023/03/29 14:33:33;;;;;;;7.93;1.95;;;;;;;;;;6311435;28;20159;-77
2023/03/29 14:36:37;;;;;;;5.72;1.48;;;;;;;;;;6313431;28;20312;-76
2023/03/29 14:39:46;;;;;;;4.55;1.65;;;;;;;;;;6312131;28;20044;-76
2023/03/29 14:42:49;;;;;;;8.95;2.60;;;;;;;;;;6308770;28;20210;-76
2023/03/29 14:46:12;;;;;;;12.88;2.13;;;;;;;;;;6312762;28;20060;-73
2023/03/29 14:49:16;;;;;;;7.18;2.40;;;;;;;;;;6311433;28;20106;-74
2023/03/29 14:53:11;;;;;;;4.80;1.75;;;;;;;;;;6312993;28;20048;-73
2023/03/29 14:56:22;;;;;;;10.35;2.10;;;;;;;;;;6308748;28;20106;-76
2023/03/29 14:59:28;;;;;;;6.63;2.38;;;;;;;;;;6310628;28;20084;-76
2023/03/29 15:02:33;;;;;;;6.30;2.47;;;;;;;;;;6313629;28;20091;-74
2023/03/29 15:05:40;;;;;;;4.95;2.03;;;;;;;;;;6312388;28;20056;-77
2023/03/29 15:08:42;;;;;;;10.32;2.47;;;;;;;;;;6312491;28;20344;-74
2023/03/29 15:12:01;;;;;;;;;;;;;;;;;;;;;
2023/03/29 15:15:06;;;;;;;7.75;2.47;;;;;;;;;;6311406;28;20106;-77
2023/03/29 15:18:46;;;;;;;4.70;2.20;;;;;;;;;;6310743;28;20232;-76
2023/03/29 15:21:49;;;;;;;9.02;2.38;;;;;;;;;;6300238;28;20383;-77
2023/03/29 15:24:51;;;;;;;;;;;;;;;;;;6312416;28;20053;-77
2023/03/29 15:27:56;;;;;;;4.88;2.38;;;;;;;;;;6310233;28;19924;-76
2023/03/29 15:30:59;;;;;;;8.40;2.55;;;;;;;;;;6312953;28;20260;-76
2023/03/29 15:34:05;;;;;;;10.82;2.42;;;;;;;;;;6310949;28;20112;-76
2023/03/29 15:37:10;;;;;;;5.05;2.17;;;;;;;;;;6300795;28;20052;-77
2023/03/29 15:40:16;;;;;;;8.00;2.35;;;;;;;;;;6314343;28;20117;-73
2023/03/29 15:47:07;;;;;;;11.15;2.30;;;;;;;;;;6317760;28;20036;-77
2023/03/29 15:50:11;;;;;;;7.50;2.08;;;;;;;;;;6315899;28;20063;-77
2023/03/29 15:57:07;;;;;;;7.60;2.50;;;;;;;;;;6317377;28;20072;-77
2023/03/29 16:03:53;;;;;;;6.85;2.00;;;;;;;;;;6268065;28;20048;-76
2023/03/29 16:10:49;;;;;;;11.20;2.20;;;;;;;;;;6305650;28;20051;-75
2023/03/29 16:17:53;;;;;;;6.30;1.92;;;;;;;;;;6262854;28;20352;-75
2023/03/29 16:20:56;;;;;;;5.65;1.80;;;;;;;;;;6315818;28;20048;-75
2023/03/29 16:24:01;;;;;;;7.40;2.30;;;;;;;;;;6318846;28;20103;-75
2023/03/29 16:27:03;;;;;;;10.55;2.97;;;;;;;;;;6315703;28;20076;-75
2023/03/29 16:30:14;;;;;;;5.25;1.85;;;;;;;;;;6310695;28;20337;-76
2023/03/29 16:33:19;;;;;;;5.68;2.10;;;;;;;;;;6312067;28;20279;-75
2023/03/29 16:36:24;;;;;;;6.45;1.70;;;;;;;;;;6298554;28;20110;-76
2023/03/29 16:39:27;;;;;;;6.82;1.90;;;;;;;;;;6301353;28;20044;-77
2023/03/29 16:42:29;;;;;;;;;;;;;;;;;;6316575;28;20324;-75
2023/03/29 16:45:57;;;;;;;6.07;1.75;;;;;;;;;;6289978;28;19924;-76
2023/03/29 16:49:06;;;;;;;17.67;2.65;;;;;;;;;;6317614;28;20328;-75
2023/03/29 16:52:08;;;;;;;7.32;2.15;;;;;;;;;;6314160;28;20090;-74
2023/03/29 16:55:14;;;;;;;11.82;2.05;;;;;;;;;;6318262;28;20060;-76
2023/03/29 16:58:24;;;;;;;6.43;2.10;;;;;;;;;;6314107;28;20065;-76
2023/03/29 17:01:27;;;;;;;9.00;1.92;;;;;;;;;;6316314;28;20048;-72
2023/03/29 17:04:30;;;;;;;9.73;1.67;;;;;;;;;;6315432;28;20044;-75
2023/03/29 17:07:52;;;;;;;12.67;1.63;;;;;;;;;;6313778;28;20132;-76
2023/03/29 17:11:33;;;;;;;9.15;1.95;;;;;;;;;;6311287;28;20115;-75
2023/03/29 17:17:56;;;;;;;5.63;1.65;;;;;;;;;;6301502;28;20381;-76
2023/03/29 17:21:01;;;;;;;9.38;1.95;;;;;;;;;;6318105;28;20060;-74
2023/03/29 17:35:12;;;;;;;8.68;1.67;;;;;;;;;;6201292;28;20068;-76
2023/03/29 17:41:49;;;;;;;;;;;;;;;;;;6202148;28;20157;-77
2023/03/29 17:45:06;;;;;;;9.40;2.05;;;;;;;;;;6203279;28;19924;-72
2023/03/29 17:48:07;;;;;;;10.80;1.70;;;;;;;;;;6200919;28;20064;-75
2023/03/29 17:51:12;;;;;;;5.50;1.52;;;;;;;;;;6215325;28;20297;-74
2023/03/29 17:54:44;;;;;;;5.10;1.60;;;;;;;;;;6219954;28;20058;-75
2023/03/29 17:57:51;;;;;;;6.45;1.70;;;;;;;;;;6232854;28;20103;-76
2023/03/29 18:01:11;;;;;;;4.75;1.60;;;;;;;;;;6313447;28;20646;-74
2023/03/29 18:04:13;;;;;;;5.60;1.58;;;;;;;;;;6317760;28;20043;-73
2023/03/29 18:07:22;;;;;;;5.63;1.65;;;;;;;;;;6311744;28;20048;-73
2023/03/29 18:10:32;;;;;;;8.98;1.70;;;;;;;;;;6307238;28;20048;-75
2023/03/29 18:13:34;;;;;;;4.10;1.55;;;;;;;;;;6318982;28;20135;-74
2023/03/29 18:20:35;;;;;;;9.32;3.05;;;;;;;;;;6267277;28;20052;-73
2023/03/29 18:27:32;;;;;;;9.38;2.15;;;;;;;;;;6243870;28;20325;-74
2023/03/29 18:30:39;;;;;;;7.45;2.30;;;;;;;;;;6295941;28;20056;-73
2023/03/29 18:33:41;;;;;;;7.07;1.90;;;;;;;;;;6299486;28;20062;-73
2023/03/29 18:36:45;;;;;;;8.55;2.40;;;;;;;;;;6317989;28;20056;-72
2023/03/29 18:39:51;;;;;;;;;;;;;;;;;;6320468;28;20090;-74
2023/03/29 18:42:53;;;;;;;7.70;2.20;;;;;;;;;;6317029;28;19920;-71
2023/03/29 18:45:55;;;;;;;9.15;2.15;;;;;;;;;;6320510;28;20051;-73
2023/03/29 18:48:58;;;;;;;7.65;2.03;;;;;;;;;;6317576;28;20052;-71
2023/03/29 18:52:02;;;;;;;6.47;1.98;;;;;;;;;;6316731;28;20070;-74
2023/03/29 18:55:05;;;;;;;6.13;1.73;;;;;;;;;;6317003;28;20044;-77
2023/03/29 18:58:07;;;;;;;8.52;2.15;;;;;;;;;;6318824;28;20391;-78
2023/03/29 19:01:10;;;;;;;8.85;2.45;;;;;;;;;;6315876;28;20320;-77
2023/03/29 19:04:13;;;;;;;6.88;2.03;;;;;;;;;;6318103;28;20113;-78
2023/03/29 19:07:17;;;;;;;9.98;2.10;;;;;;;;;;6318635;28;20123;-78
2023/03/29 19:10:19;;;;;;;8.27;2.00;;;;;;;;;;6319040;28;20073;-78
2023/03/29 19:13:21;;;;;;;7.82;2.25;;;;;;;;;;6319614;28;20052;-78
2023/03/29 19:16:24;;;;;;;6.80;2.20;;;;;;;;;;6320031;28;20115;-76
2023/03/29 19:19:26;;;;;;;6.93;2.30;;;;;;;;;;6321930;28;20279;-77
2023/03/29 19:22:29;;;;;;;11.80;2.55;;;;;;;;;;6323880;28;20043;-78
2023/03/29 19:25:32;;;;;;;6.20;2.20;;;;;;;;;;6326637;28;20398;-77
2023/03/29 19:28:34;;;;;;;10.35;2.53;;;;;;;;;;6323790;28;20052;-79
2023/03/29 19:31:37;;;;;;;10.18;2.22;;;;;;;;;;6322383;28;20394;-78
2023/03/29 19:34:38;;;;;;;10.77;2.20;;;;;;;;;;6323071;28;20101;-78
2023/03/29 19:37:42;;;;;;;7.65;2.00;;;;;;;;;;6324000;28;20114;-79
2023/03/29 19:40:59;;;;;;;;;;;;;;;;;;6322113;28;20044;-77
2023/03/29 19:44:01;;;;;;;4.80;2.15;;;;;;;;;;6323963;28;19924;-77
2023/03/29 19:47:02;;;;;;;6.53;2.38;;;;;;;;;;6322865;28;20325;-79
2023/03/29 19:50:05;;;;;;;8.13;2.20;;;;;;;;;;6321356;28;20044;-79
2023/03/29 19:53:09;;;;;;;7.53;2.20;;;;;;;;;;6321836;28;20055;-75
2023/03/29 19:56:12;;;;;;;7.53;1.92;;;;;;;;;;6322362;28;20109;-75
2023/03/29 19:59:16;;;;;;;7.10;1.93;;;;;;;;;;6318877;28;20057;-74
2023/03/29 20:02:18;;;;;;;7.20;2.22;;;;;;;;;;6322769;28;20052;-78
2023/03/29 20:05:20;;;;;;;7.38;2.25;;;;;;;;;;6311929;28;20068;-77
2023/03/29 20:08:25;;;;;;;5.55;2.00;;;;;;;;;;6325452;28;20361;-78
2023/03/29 20:11:27;;;;;;;7.32;2.78;;;;;;;;;;6321456;28;20063;-79
2023/03/29 20:14:29;;;;;;;10.43;2.55;;;;;;;;;;6324867;28;20052;-80
2023/03/29 20:17:31;;;;;;;11.23;2.42;;;;;;;;;;6323348;28;20110;-80
2023/03/29 20:20:34;;;;;;;7.65;2.55;;;;;;;;;;6321459;28;20340;-80
2023/03/29 20:23:37;;;;;;;7.63;2.50;;;;;;;;;;6319969;28;20048;-79
2023/03/29 20:26:39;;;;;;;7.30;2.30;;;;;;;;;;6319737;28;20097;-80
2023/03/29 20:29:41;;;;;;;8.45;3.25;;;;;;;;;;6319978;28;20127;-80
2023/03/29 20:32:43;;;;;;;11.15;2.97;;;;;;;;;;6319754;28;20044;-79
2023/03/29 20:35:45;;;;;;;9.80;2.72;;;;;;;;;;6321128;28;20063;-79
2023/03/29 20:38:48;;;;;;;6.60;2.72;;;;;;;;;;6320040;28;20098;-80
2023/03/29 20:41:50;;;;;;;7.78;2.40;;;;;;;;;;6319729;28;20044;-80
2023/03/29 20:44:52;;;;;;;7.88;2.28;;;;;;;;;;6322211;28;20045;-76
2023/03/29 20:48:00;;;;;;;5.45;2.03;;;;;;;;;;6322746;28;20341;-79
2023/03/29 20:51:08;;;;;;;6.35;2.55;;;;;;;;;;6320472;28;20040;-82
2023/03/29 20:54:15;;;;;;;8.65;3.33;;;;;;;;;;6324095;28;20045;-75
2023/03/29 20:57:19;;;;;;;7.93;2.30;;;;;;;;;;6319542;28;20285;-77
2023/03/29 21:00:21;;;;;;;6.13;2.00;;;;;;;;;;6322022;28;20068;-75
2023/03/29 21:03:24;;;;;;;10.85;2.25;;;;;;;;;;6323472;28;20052;-76
2023/03/29 21:06:27;;;;;;;4.57;2.25;;;;;;;;;;6322838;28;20071;-76
2023/03/29 21:09:32;;;;;;;6.15;2.25;;;;;;;;;;6319322;28;20101;-75
2023/03/29 21:12:35;;;;;;;8.60;2.17;;;;;;;;;;6321350;28;20048;-73
2023/03/29 21:15:37;;;;;;;7.75;2.72;;;;;;;;;;6320569;28;20048;-74
2023/03/29 21:18:39;;;;;;;6.78;3.17;;;;;;;;;;6320843;28;20051;-72
2023/03/29 21:21:41;;;;;;;8.63;2.38;;;;;;;;;;6319769;28;20397;-73
2023/03/29 21:24:45;;;;;;;4.45;2.15;;;;;;;;;;6318114;28;20063;-74
2023/03/29 21:27:47;;;;;;;10.20;2.15;;;;;;;;;;6321249;28;20051;-74
2023/03/29 21:30:49;;;;;;;6.25;2.25;;;;;;;;;;6309750;28;20090;-74
2023/03/29 21:33:51;;;;;;;8.40;2.38;;;;;;;;;;6320608;28;20339;-75
2023/03/29 21:37:36;;;;;;;5.60;2.40;;;;;;;;;;6325431;28;20119;-75
2023/03/29 21:40:39;;;;;;;6.60;2.60;;;;;;;;;;6315299;28;20095;-71
2023/03/29 21:43:41;;;;;;;6.13;2.10;;;;;;;;;;6319129;28;20292;-70
2023/03/29 21:46:42;;;;;;;9.45;2.88;;;;;;;;;;6321724;28;20109;-70